createdAt,value
2023-08-14T00:01:04.722Z,23.85
2023-08-14T00:03:32.442Z,23.85
2023-08-14T00:05:59.670Z,23.86
2023-08-14T00:08:26.823Z,23.85
2023-08-14T00:10:53.691Z,23.83
2023-08-14T00:13:22.018Z,23.83
2023-08-14T00:15:49.929Z,23.83
2023-08-14T00:18:17.601Z,23.77
2023-08-14T00:20:47.292Z,23.75
2023-08-14T00:23:14.305Z,23.74
2023-08-14T00:25:41.176Z,23.72
2023-08-14T00:28:08.546Z,23.68
2023-08-14T00:30:35.455Z,23.64
2023-08-14T00:33:02.463Z,23.62
2023-08-14T00:35:29.428Z,23.63
2023-08-14T00:37:56.339Z,23.63
2023-08-14T00:40:23.306Z,23.60
2023-08-14T00:42:50.256Z,23.58
2023-08-14T00:45:17.575Z,23.57
2023-08-14T00:47:47.087Z,23.58
2023-08-14T00:50:14.698Z,23.55
2023-08-14T00:52:45.190Z,23.55
2023-08-14T00:55:18.424Z,23.55
2023-08-14T00:57:45.796Z,23.54
2023-08-14T01:00:13.557Z,23.53
2023-08-14T01:02:43.160Z,23.53
2023-08-14T01:05:10.579Z,23.50
2023-08-14T01:07:38.241Z,23.51
2023-08-14T01:10:09.137Z,23.52
2023-08-14T01:13:08.792Z,23.52
2023-08-14T01:15:51.508Z,23.51
2023-08-14T01:18:20.484Z,23.50
2023-08-14T01:21:12.996Z,23.50
2023-08-14T01:24:13.861Z,23.49
2023-08-14T01:26:41.255Z,23.49
2023-08-14T01:29:08.088Z,23.47
2023-08-14T01:31:34.973Z,23.45
2023-08-14T01:34:02.029Z,23.46
2023-08-14T01:36:42.886Z,23.44
2023-08-14T01:39:17.664Z,23.44
2023-08-14T01:42:02.840Z,23.43
2023-08-14T01:44:32.742Z,23.43
2023-08-14T01:47:01.549Z,23.45
2023-08-14T01:49:31.426Z,23.45
2023-08-14T01:51:59.198Z,23.46
2023-08-14T01:54:26.272Z,23.47
2023-08-14T01:56:53.203Z,23.44
2023-08-14T01:59:30.765Z,23.46
2023-08-14T02:01:57.693Z,23.47
2023-08-14T02:04:25.264Z,23.48
2023-08-14T02:06:52.157Z,23.48
2023-08-14T02:09:19.032Z,23.43
2023-08-14T02:11:45.868Z,23.36
2023-08-14T02:14:12.772Z,23.30
2023-08-14T02:16:39.645Z,23.24
2023-08-14T02:19:06.541Z,23.17
2023-08-14T02:21:33.414Z,23.11
2023-08-14T02:24:00.284Z,23.02
2023-08-14T02:26:27.154Z,22.91
2023-08-14T02:28:55.084Z,22.83
2023-08-14T02:31:22.068Z,22.79
2023-08-14T02:33:49.012Z,22.75
2023-08-14T02:36:15.977Z,22.76
2023-08-14T02:38:42.871Z,22.71
2023-08-14T02:41:09.881Z,22.63
2023-08-14T02:43:36.811Z,22.59
2023-08-14T02:46:03.803Z,22.59
2023-08-14T02:48:30.748Z,22.57
2023-08-14T02:50:57.626Z,22.60
2023-08-14T02:53:24.498Z,22.61
2023-08-14T02:55:54.469Z,22.62
2023-08-14T02:58:21.472Z,22.61
2023-08-14T03:00:49.174Z,22.59
2023-08-14T03:03:16.787Z,22.60
2023-08-14T03:05:45.486Z,22.60
2023-08-14T03:08:12.369Z,22.60
2023-08-14T03:10:39.257Z,22.56
2023-08-14T03:13:06.520Z,22.56
2023-08-14T03:15:33.366Z,22.56
2023-08-14T03:18:00.313Z,22.56
2023-08-14T03:20:27.226Z,22.53
2023-08-14T03:22:54.106Z,22.55
2023-08-14T03:25:21.508Z,22.52
2023-08-14T03:27:48.384Z,22.51
2023-08-14T03:30:15.297Z,22.50
2023-08-14T03:32:42.225Z,22.45
2023-08-14T03:35:09.482Z,22.44
2023-08-14T03:37:36.376Z,22.41
2023-08-14T03:40:04.039Z,22.41
2023-08-14T03:42:30.889Z,22.38
2023-08-14T03:44:57.737Z,22.38
2023-08-14T03:47:24.621Z,22.36
2023-08-14T03:49:51.489Z,22.34
2023-08-14T03:52:18.874Z,22.31
2023-08-14T03:54:46.247Z,22.29
2023-08-14T03:57:13.131Z,22.29
2023-08-14T03:59:40.033Z,22.29
2023-08-14T04:02:06.994Z,22.27
2023-08-14T04:04:33.980Z,22.24
2023-08-14T04:07:00.882Z,22.21
2023-08-14T04:09:28.312Z,22.17
2023-08-14T04:11:55.238Z,22.15
2023-08-14T04:14:22.138Z,22.08
2023-08-14T04:16:49.149Z,22.05
2023-08-14T04:19:18.464Z,21.99
2023-08-14T04:21:45.621Z,21.94
2023-08-14T04:24:12.853Z,21.94
2023-08-14T04:26:40.669Z,21.94
2023-08-14T04:29:09.312Z,21.95
2023-08-14T04:31:38.125Z,21.94
2023-08-14T04:34:06.240Z,21.98
2023-08-14T04:36:35.030Z,21.94
2023-08-14T04:39:04.670Z,21.93
2023-08-14T04:41:31.879Z,21.93
2023-08-14T04:43:58.752Z,21.94
2023-08-14T04:46:48.926Z,21.97
2023-08-14T04:49:20.961Z,21.96
2023-08-14T04:51:47.988Z,21.93
2023-08-14T04:54:14.887Z,21.92
2023-08-14T04:56:41.759Z,21.93
2023-08-14T04:59:08.645Z,21.93
2023-08-14T05:01:35.566Z,21.95
2023-08-14T05:04:02.486Z,22.03
2023-08-14T05:06:29.429Z,22.10
2023-08-14T05:08:56.296Z,22.18
2023-08-14T05:11:23.260Z,22.28
2023-08-14T05:13:50.169Z,22.36
2023-08-14T05:16:17.104Z,22.47
2023-08-14T05:18:44.009Z,22.60
2023-08-14T05:21:10.878Z,22.74
2023-08-14T05:23:37.745Z,22.90
2023-08-14T05:26:04.692Z,23.06
2023-08-14T05:28:31.761Z,23.25
2023-08-14T05:30:58.768Z,23.51
2023-08-14T05:33:25.663Z,23.63
2023-08-14T05:35:52.567Z,23.80
2023-08-14T05:38:19.443Z,24.08
2023-08-14T05:40:46.407Z,24.39
2023-08-14T05:43:14.911Z,24.80
2023-08-14T05:45:47.033Z,25.11
2023-08-14T05:48:15.518Z,25.49
2023-08-14T05:50:42.860Z,25.97
2023-08-14T05:53:10.249Z,26.33
2023-08-14T05:55:39.280Z,26.45
2023-08-14T05:58:07.406Z,26.52
2023-08-14T06:00:36.102Z,26.53
2023-08-14T06:03:03.807Z,26.46
2023-08-14T06:05:30.920Z,26.24
2023-08-14T06:07:58.767Z,25.94
2023-08-14T06:10:25.983Z,25.69
2023-08-14T06:12:53.086Z,25.57
2023-08-14T06:15:21.061Z,25.48
2023-08-14T06:17:49.537Z,25.40
2023-08-14T06:20:16.874Z,25.39
2023-08-14T06:22:47.191Z,25.59
2023-08-14T06:25:16.399Z,25.72
2023-08-14T06:27:43.335Z,25.85
2023-08-14T06:30:12.018Z,26.00
2023-08-14T06:32:40.067Z,26.18
2023-08-14T06:35:07.886Z,26.42
2023-08-14T06:37:35.741Z,26.64
2023-08-14T06:40:04.875Z,26.75
2023-08-14T06:42:32.001Z,27.60
2023-08-14T06:44:59.212Z,28.53
2023-08-14T06:47:26.267Z,28.69
2023-08-14T06:49:53.185Z,29.44
2023-08-14T06:52:20.508Z,30.54
2023-08-14T06:54:47.682Z,31.83
2023-08-14T06:57:14.926Z,32.93
2023-08-14T06:59:42.198Z,33.67
2023-08-14T07:02:09.905Z,34.39
2023-08-14T07:04:36.870Z,34.47
2023-08-14T07:07:03.782Z,34.53
2023-08-14T07:09:30.654Z,34.81
2023-08-14T07:11:57.520Z,35.00
2023-08-14T07:14:24.396Z,34.42
2023-08-14T07:16:51.298Z,33.67
2023-08-14T07:19:18.833Z,33.53
2023-08-14T07:21:46.290Z,33.95
2023-08-14T07:24:13.701Z,34.68
2023-08-14T07:26:42.138Z,35.48
2023-08-14T07:29:09.610Z,36.23
2023-08-14T07:31:36.546Z,36.52
2023-08-14T07:34:03.407Z,35.90
2023-08-14T07:36:30.266Z,35.42
2023-08-14T07:38:57.126Z,35.89
2023-08-14T07:41:24.011Z,36.59
2023-08-14T07:43:50.927Z,37.07
2023-08-14T07:46:19.372Z,37.74
2023-08-14T07:48:46.574Z,38.49
2023-08-14T07:51:13.503Z,38.96
2023-08-14T07:53:40.421Z,38.66
2023-08-14T07:56:07.348Z,38.49
2023-08-14T07:58:34.250Z,38.65
2023-08-14T08:01:01.209Z,39.06
2023-08-14T08:03:28.131Z,39.61
2023-08-14T08:05:55.115Z,38.73
2023-08-14T08:08:22.132Z,37.81
2023-08-14T08:10:49.056Z,36.87
2023-08-14T08:13:15.991Z,36.61
2023-08-14T08:15:42.951Z,36.00
2023-08-14T08:18:10.062Z,35.17
2023-08-14T08:20:37.305Z,34.24
2023-08-14T08:23:05.127Z,33.37
2023-08-14T08:25:32.129Z,32.49
2023-08-14T08:27:59.350Z,31.86
2023-08-14T08:30:26.304Z,31.30
2023-08-14T08:32:53.292Z,30.92
2023-08-14T08:35:20.301Z,30.59
2023-08-14T08:37:50.013Z,30.36
2023-08-14T08:40:17.033Z,30.18
2023-08-14T08:42:43.995Z,30.05
2023-08-14T08:45:13.093Z,29.81
2023-08-14T08:47:41.731Z,29.63
2023-08-14T08:50:10.282Z,29.50
2023-08-14T08:52:38.146Z,29.42
2023-08-14T08:55:14.286Z,29.47
2023-08-14T08:57:45.034Z,29.63
2023-08-14T09:00:12.994Z,30.26
2023-08-14T09:02:47.713Z,31.75
2023-08-14T09:05:15.290Z,32.80
2023-08-14T09:07:42.181Z,33.12
2023-08-14T09:10:09.597Z,33.10
2023-08-14T09:12:36.720Z,33.08
2023-08-14T09:15:09.116Z,33.24
2023-08-14T09:17:36.078Z,33.35
2023-08-14T09:20:12.286Z,33.37
2023-08-14T09:22:42.766Z,33.26
2023-08-14T09:25:09.677Z,33.14
2023-08-14T09:27:36.907Z,32.93
2023-08-14T09:30:07.878Z,32.72
2023-08-14T09:32:34.883Z,32.62
2023-08-14T09:35:03.806Z,32.41
2023-08-14T09:37:31.058Z,32.23
2023-08-14T09:40:16.759Z,32.15
2023-08-14T09:42:48.521Z,32.01
2023-08-14T09:45:20.272Z,31.97
2023-08-14T09:47:49.818Z,31.99
2023-08-14T09:50:21.129Z,31.97
2023-08-14T09:52:48.356Z,31.93
2023-08-14T09:55:15.890Z,31.78
2023-08-14T09:57:43.263Z,31.67
2023-08-14T10:00:13.571Z,31.57
2023-08-14T10:02:44.715Z,31.48
2023-08-14T10:05:12.055Z,31.39
2023-08-14T10:07:40.870Z,31.29
2023-08-14T10:10:12.264Z,31.17
2023-08-14T10:12:52.107Z,31.16
2023-08-14T10:15:27.296Z,31.38
2023-08-14T10:18:05.744Z,31.63
2023-08-14T10:20:35.693Z,31.59
2023-08-14T10:23:03.851Z,31.45
2023-08-14T10:25:31.551Z,31.32
2023-08-14T10:27:58.936Z,31.18
2023-08-14T10:30:26.550Z,31.08
2023-08-14T10:32:54.714Z,31.11
2023-08-14T10:35:22.656Z,31.17
2023-08-14T10:38:04.434Z,31.21
2023-08-14T10:40:37.180Z,31.27
2023-08-14T10:43:06.759Z,31.26
2023-08-14T10:45:34.614Z,31.32
2023-08-14T10:48:10.465Z,31.47
2023-08-14T10:50:37.498Z,31.60
2023-08-14T10:53:06.987Z,31.71
2023-08-14T10:55:42.867Z,31.80
2023-08-14T10:58:34.728Z,31.82
2023-08-14T11:01:04.220Z,31.73
2023-08-14T11:03:34.836Z,31.66
2023-08-14T11:06:02.194Z,31.61
2023-08-14T11:08:31.221Z,31.63
2023-08-14T11:10:59.465Z,31.62
2023-08-14T11:13:32.998Z,31.58
2023-08-14T11:16:00.169Z,31.52
2023-08-14T11:18:28.749Z,31.46
2023-08-14T11:21:10.436Z,31.43
2023-08-14T11:23:41.500Z,31.43
2023-08-14T11:26:11.163Z,31.40
2023-08-14T11:28:38.041Z,31.39
2023-08-14T11:31:05.429Z,31.41
2023-08-14T11:33:32.951Z,31.42
2023-08-14T11:36:04.213Z,31.47
2023-08-14T11:38:38.372Z,31.54
2023-08-14T11:41:05.296Z,31.56
2023-08-14T11:43:32.196Z,31.52
2023-08-14T11:45:59.306Z,31.38
2023-08-14T11:48:26.929Z,31.24
2023-08-14T11:50:54.497Z,31.15
2023-08-14T11:53:22.141Z,31.11
2023-08-14T11:55:49.451Z,31.08
2023-08-14T11:58:16.402Z,30.98
2023-08-14T12:00:43.749Z,30.93
2023-08-14T12:03:13.343Z,30.90
2023-08-14T12:05:40.398Z,30.88
2023-08-14T12:08:10.177Z,30.91
2023-08-14T12:10:37.075Z,30.94
2023-08-14T12:13:04.229Z,30.97
2023-08-14T12:15:32.386Z,31.01
2023-08-14T12:17:59.860Z,31.04
2023-08-14T12:20:32.077Z,31.05
2023-08-14T12:23:15.282Z,31.09
2023-08-14T12:25:42.292Z,31.06
2023-08-14T12:28:09.208Z,31.06
2023-08-14T12:30:36.601Z,31.09
2023-08-14T12:33:03.764Z,31.13
2023-08-14T12:35:31.729Z,31.18
2023-08-14T12:37:59.942Z,31.22
2023-08-14T12:40:28.494Z,31.24
2023-08-14T12:42:55.430Z,31.17
2023-08-14T12:45:22.332Z,31.14
2023-08-14T12:47:49.280Z,31.04
2023-08-14T12:50:16.324Z,31.04
2023-08-14T12:52:45.176Z,30.93
2023-08-14T12:55:18.867Z,30.96
2023-08-14T12:57:47.851Z,30.98
2023-08-14T13:00:16.261Z,31.01
2023-08-14T13:02:43.201Z,31.00
2023-08-14T13:05:10.225Z,31.00
2023-08-14T13:07:37.120Z,31.07
2023-08-14T13:10:04.729Z,31.11
2023-08-14T13:12:31.729Z,31.11
2023-08-14T13:14:58.676Z,31.11
2023-08-14T13:17:25.651Z,31.17
2023-08-14T13:19:56.257Z,31.19
2023-08-14T13:22:25.437Z,31.22
2023-08-14T13:24:52.402Z,31.12
2023-08-14T13:27:19.589Z,31.11
2023-08-14T13:29:46.739Z,31.08
2023-08-14T13:32:13.599Z,30.99
2023-08-14T13:34:40.498Z,30.99
2023-08-14T13:37:08.028Z,30.95
2023-08-14T13:39:35.070Z,30.92
2023-08-14T13:42:01.941Z,30.84
2023-08-14T13:44:31.584Z,30.66
2023-08-14T13:46:58.787Z,30.53
2023-08-14T13:49:26.511Z,30.43
2023-08-14T13:51:53.367Z,30.37
2023-08-14T13:54:20.281Z,30.30
2023-08-14T13:56:47.148Z,30.27
2023-08-14T13:59:14.086Z,30.26
2023-08-14T14:01:41.110Z,30.23
2023-08-14T14:04:08.840Z,30.19
2023-08-14T14:06:35.817Z,30.05
2023-08-14T14:09:03.380Z,30.01
2023-08-14T14:11:30.300Z,30.00
2023-08-14T14:13:59.879Z,29.99
2023-08-14T14:16:57.017Z,29.89
2023-08-14T14:19:25.376Z,29.86
2023-08-14T14:21:53.675Z,29.84
2023-08-14T14:24:20.640Z,29.87
2023-08-14T14:26:47.676Z,29.94
2023-08-14T14:29:14.746Z,29.92
2023-08-14T14:31:44.680Z,29.97
2023-08-14T14:34:11.645Z,29.96
2023-08-14T14:36:38.553Z,29.99
2023-08-14T14:39:05.994Z,30.00
2023-08-14T14:41:32.889Z,30.00
2023-08-14T14:44:02.521Z,30.04
2023-08-14T14:46:29.471Z,30.12
2023-08-14T14:48:56.356Z,30.21
2023-08-14T14:51:24.130Z,30.24
2023-08-14T14:53:51.108Z,30.23
2023-08-14T14:56:18.303Z,30.21
2023-08-14T14:58:45.478Z,30.13
2023-08-14T15:01:15.219Z,30.09
2023-08-14T15:03:42.701Z,30.02
2023-08-14T15:06:12.387Z,29.95
2023-08-14T15:08:43.394Z,29.87
2023-08-14T15:11:10.666Z,29.82
2023-08-14T15:13:37.970Z,29.77
2023-08-14T15:16:04.965Z,29.70
2023-08-14T15:18:31.906Z,29.63
2023-08-14T15:20:58.848Z,29.54
2023-08-14T15:23:25.726Z,29.47
2023-08-14T15:25:52.626Z,29.43
2023-08-14T15:28:19.578Z,29.34
2023-08-14T15:30:46.533Z,29.27
2023-08-14T15:33:13.380Z,29.22
2023-08-14T15:35:40.766Z,29.14
2023-08-14T15:38:07.672Z,29.08
2023-08-14T15:40:34.603Z,29.06
2023-08-14T15:43:01.526Z,29.07
2023-08-14T15:45:28.462Z,29.17
2023-08-14T15:48:01.038Z,29.29
2023-08-14T15:50:27.904Z,29.40
2023-08-14T15:52:54.896Z,29.47
2023-08-14T15:55:21.868Z,29.50
2023-08-14T15:57:51.794Z,29.53
2023-08-14T16:00:19.773Z,29.58
2023-08-14T16:02:49.815Z,29.59
2023-08-14T16:05:16.756Z,29.55
2023-08-14T16:07:43.677Z,29.52
2023-08-14T16:10:10.632Z,29.51
2023-08-14T16:12:37.538Z,29.47
2023-08-14T16:15:05.217Z,29.40
2023-08-14T16:17:32.122Z,29.32
2023-08-14T16:20:01.005Z,29.30
2023-08-14T16:22:27.911Z,29.32
2023-08-14T16:24:54.832Z,29.33
2023-08-14T16:27:21.981Z,29.34
2023-08-14T16:29:49.143Z,29.34
2023-08-14T16:32:16.052Z,29.33
2023-08-14T16:34:43.016Z,29.36
2023-08-14T16:37:09.868Z,29.36
2023-08-14T16:39:36.807Z,29.36
2023-08-14T16:42:04.002Z,29.36
2023-08-14T16:44:30.968Z,29.33
2023-08-14T16:46:57.903Z,29.25
2023-08-14T16:49:24.773Z,29.22
2023-08-14T16:51:51.776Z,29.19
2023-08-14T16:54:18.711Z,29.13
2023-08-14T16:56:45.655Z,29.09
2023-08-14T16:59:12.881Z,29.07
2023-08-14T17:01:39.826Z,29.06
2023-08-14T17:04:06.944Z,29.04
2023-08-14T17:06:34.253Z,29.03
2023-08-14T17:09:02.662Z,29.03
2023-08-14T17:11:29.574Z,29.03
2023-08-14T17:13:56.547Z,29.03
2023-08-14T17:16:23.542Z,29.00
2023-08-14T17:18:50.414Z,29.00
2023-08-14T17:21:17.272Z,28.98
2023-08-14T17:23:44.177Z,28.92
2023-08-14T17:26:11.036Z,28.82
2023-08-14T17:28:38.038Z,28.82
2023-08-14T17:31:04.923Z,28.84
2023-08-14T17:33:31.832Z,28.89
2023-08-14T17:35:59.193Z,28.92
2023-08-14T17:38:26.115Z,28.84
2023-08-14T17:40:53.025Z,28.79
2023-08-14T17:43:20.608Z,28.75
2023-08-14T17:45:51.069Z,28.74
2023-08-14T17:48:18.085Z,28.72
2023-08-14T17:50:53.391Z,28.74
2023-08-14T17:53:21.144Z,28.71
2023-08-14T17:55:48.138Z,28.67
2023-08-14T17:58:15.121Z,28.65
2023-08-14T18:00:50.963Z,28.61
2023-08-14T18:03:18.061Z,28.56
2023-08-14T18:05:52.380Z,28.52
2023-08-14T18:08:19.913Z,28.50
2023-08-14T18:10:47.185Z,28.50
2023-08-14T18:13:14.089Z,28.48
2023-08-14T18:15:41.257Z,28.47
2023-08-14T18:18:08.221Z,28.45
2023-08-14T18:20:35.339Z,28.41
2023-08-14T18:23:02.993Z,28.42
2023-08-14T18:25:29.964Z,28.39
2023-08-14T18:27:56.969Z,28.36
2023-08-14T18:30:24.029Z,28.31
2023-08-14T18:32:50.981Z,28.27
2023-08-14T18:35:18.033Z,28.23
2023-08-14T18:37:44.920Z,28.19
2023-08-14T18:40:11.866Z,28.14
2023-08-14T18:42:38.811Z,28.10
2023-08-14T18:45:06.580Z,28.03
2023-08-14T18:47:33.748Z,28.00
2023-08-14T18:50:00.736Z,27.97
2023-08-14T18:52:28.834Z,27.95
2023-08-14T18:54:55.658Z,27.92
2023-08-14T18:57:22.649Z,27.89
2023-08-14T18:59:49.542Z,27.85
2023-08-14T19:02:16.492Z,27.83
2023-08-14T19:04:44.099Z,27.80
2023-08-14T19:07:12.647Z,27.78
2023-08-14T19:09:39.525Z,27.74
2023-08-14T19:12:08.298Z,27.71
2023-08-14T19:14:36.064Z,27.67
2023-08-14T19:17:04.378Z,27.63
2023-08-14T19:19:31.302Z,27.61
2023-08-14T19:21:58.654Z,27.58
2023-08-14T19:24:25.653Z,27.57
2023-08-14T19:26:52.553Z,27.60
2023-08-14T19:29:19.739Z,27.58
2023-08-14T19:31:46.612Z,27.54
2023-08-14T19:34:13.564Z,27.49
2023-08-14T19:36:40.488Z,27.45
2023-08-14T19:39:07.503Z,27.37
2023-08-14T19:41:34.374Z,27.34
2023-08-14T19:44:04.821Z,27.31
2023-08-14T19:46:32.240Z,27.28
2023-08-14T19:48:59.165Z,27.26
2023-08-14T19:51:26.114Z,27.24
2023-08-14T19:53:53.104Z,27.24
2023-08-14T19:56:20.732Z,27.22
2023-08-14T19:58:47.677Z,27.21
2023-08-14T20:01:14.709Z,27.21
2023-08-14T20:03:44.117Z,27.20
2023-08-14T20:06:14.321Z,27.15
2023-08-14T20:08:41.214Z,27.13
2023-08-14T20:11:08.106Z,27.11
2023-08-14T20:13:35.001Z,27.09
2023-08-14T20:16:02.125Z,27.04
2023-08-14T20:18:30.298Z,27.02
2023-08-14T20:20:57.309Z,26.99
2023-08-14T20:23:24.304Z,26.96
2023-08-14T20:25:52.455Z,26.93
2023-08-14T20:28:19.699Z,26.90
2023-08-14T20:30:46.659Z,26.87
2023-08-14T20:33:15.424Z,26.84
2023-08-14T20:35:47.681Z,26.82
2023-08-14T20:38:15.137Z,26.81
2023-08-14T20:40:42.082Z,26.76
2023-08-14T20:43:13.797Z,26.75
2023-08-14T20:45:41.371Z,26.75
2023-08-14T20:48:09.003Z,26.71
2023-08-14T20:50:37.077Z,26.69
2023-08-14T20:53:04.910Z,26.64
2023-08-14T20:55:32.060Z,26.62
2023-08-14T20:57:59.029Z,26.59
2023-08-14T21:00:25.947Z,26.58
2023-08-14T21:02:52.969Z,26.56
2023-08-14T21:05:19.978Z,26.51
2023-08-14T21:07:46.858Z,26.50
2023-08-14T21:10:13.842Z,26.47
2023-08-14T21:12:40.714Z,26.47
2023-08-14T21:15:08.123Z,26.44
2023-08-14T21:17:35.232Z,26.39
2023-08-14T21:20:02.709Z,26.34
2023-08-14T21:22:29.647Z,26.30
2023-08-14T21:24:56.677Z,26.27
2023-08-14T21:27:23.624Z,26.23
2023-08-14T21:29:50.797Z,26.22
2023-08-14T21:32:17.707Z,26.18
2023-08-14T21:34:44.589Z,26.15
2023-08-14T21:37:11.506Z,26.11
2023-08-14T21:39:38.380Z,26.11
2023-08-14T21:42:05.655Z,26.13
2023-08-14T21:44:32.536Z,26.11
2023-08-14T21:46:59.451Z,26.07
2023-08-14T21:49:26.399Z,26.04
2023-08-14T21:51:56.600Z,26.02
2023-08-14T21:54:23.474Z,25.99
2023-08-14T21:56:50.312Z,25.94
2023-08-14T21:59:17.228Z,25.93
2023-08-14T22:01:45.427Z,25.94
2023-08-14T22:04:13.171Z,25.92
2023-08-14T22:06:40.082Z,25.90
2023-08-14T22:09:07.417Z,25.88
2023-08-14T22:11:34.954Z,25.88
2023-08-14T22:14:01.983Z,25.87
2023-08-14T22:16:28.899Z,25.84
2023-08-14T22:18:55.992Z,25.78
2023-08-14T22:21:22.946Z,25.73
2023-08-14T22:23:49.815Z,25.67
2023-08-14T22:26:17.438Z,25.64
2023-08-14T22:28:44.309Z,25.64
2023-08-14T22:31:14.854Z,25.62
2023-08-14T22:33:44.913Z,25.57
2023-08-14T22:36:12.053Z,25.58
2023-08-14T22:38:39.346Z,25.57
2023-08-14T22:41:06.285Z,25.53
2023-08-14T22:43:33.167Z,25.53
2023-08-14T22:46:00.177Z,25.51
2023-08-14T22:48:27.266Z,25.49
2023-08-14T22:50:54.118Z,25.47
2023-08-14T22:53:22.718Z,25.47
2023-08-14T22:55:49.888Z,25.44
2023-08-14T22:58:17.181Z,25.45
2023-08-14T23:00:44.085Z,25.43
2023-08-14T23:03:11.021Z,25.37
2023-08-14T23:05:41.587Z,25.38
2023-08-14T23:08:08.452Z,25.36
2023-08-14T23:10:35.625Z,25.37
2023-08-14T23:13:03.304Z,25.36
2023-08-14T23:15:30.249Z,25.35
2023-08-14T23:17:58.256Z,25.35
2023-08-14T23:20:25.308Z,25.34
2023-08-14T23:22:52.158Z,25.32
2023-08-14T23:25:19.055Z,25.31
2023-08-14T23:27:46.942Z,25.28
2023-08-14T23:30:13.883Z,25.25
2023-08-14T23:32:40.880Z,25.25
2023-08-14T23:35:08.905Z,25.22
2023-08-14T23:37:36.077Z,25.18
2023-08-14T23:40:04.304Z,25.16
2023-08-14T23:42:31.239Z,25.16
2023-08-14T23:44:58.252Z,25.12
2023-08-14T23:47:25.183Z,25.09
2023-08-14T23:49:52.087Z,25.05
2023-08-14T23:52:19.102Z,25.00
2023-08-14T23:54:46.017Z,24.95
2023-08-14T23:57:12.913Z,24.94
2023-08-14T23:59:39.789Z,24.92
